createdAt,value
2022-10-11T00:00:12.148Z,62.42
2022-10-11T00:05:34.759Z,69.15
2022-10-11T00:10:37.250Z,60.26
2022-10-11T00:15:40.354Z,54.59
2022-10-11T00:20:42.836Z,57.44
2022-10-11T00:25:45.307Z,58.92
2022-10-11T00:30:47.706Z,60.25
2022-10-11T00:35:50.485Z,61.22
2022-10-11T00:40:52.890Z,65.11
2022-10-11T00:45:55.252Z,67.79
2022-10-11T00:50:59.540Z,59.33
2022-10-11T00:56:07.248Z,56.45
2022-10-11T01:01:10.036Z,58.98
2022-10-11T01:06:12.625Z,60.43
2022-10-11T01:11:17.802Z,67.42
2022-10-11T01:16:21.144Z,62.46
2022-10-11T01:21:23.509Z,56.58
2022-10-11T01:26:34.213Z,57.74
2022-10-11T01:31:41.661Z,62.26
2022-10-11T01:36:48.540Z,66.41
2022-10-11T01:41:53.054Z,58.68
2022-10-11T01:46:55.458Z,56.72
2022-10-11T01:51:59.599Z,58.95
2022-10-11T01:57:21.943Z,61.37
2022-10-11T02:02:27.253Z,66.90
2022-10-11T02:07:40.420Z,66.47
2022-10-11T02:12:44.409Z,59.93
2022-10-11T02:17:49.176Z,56.92
2022-10-11T02:22:54.867Z,60.16
2022-10-11T02:27:59.794Z,62.52
2022-10-11T02:33:04.791Z,69.17
2022-10-11T02:38:10.137Z,63.03
2022-10-11T02:43:17.549Z,58.41
2022-10-11T02:48:20.005Z,58.09
2022-10-11T02:53:23.159Z,60.97
2022-10-11T02:58:25.597Z,68.62
2022-10-11T03:03:28.131Z,63.61
2022-10-11T03:08:30.804Z,60.10
2022-10-11T03:13:33.174Z,57.68
2022-10-11T03:18:35.551Z,63.40
2022-10-11T03:23:38.098Z,65.72
2022-10-11T03:28:40.595Z,60.83
2022-10-11T03:33:43.027Z,57.63
2022-10-11T03:38:45.442Z,59.60
2022-10-11T03:43:47.809Z,65.89
2022-10-11T03:48:50.515Z,65.70
2022-10-11T03:53:52.906Z,60.18
2022-10-11T03:58:55.698Z,59.90
2022-10-11T04:03:58.111Z,65.81
2022-10-11T04:09:00.941Z,61.69
2022-10-11T04:14:03.413Z,58.90
2022-10-11T04:19:05.910Z,63.84
2022-10-11T04:24:10.501Z,65.39
2022-10-11T04:29:12.988Z,60.74
2022-10-11T04:34:15.503Z,57.62
2022-10-11T04:39:18.205Z,61.13
2022-10-11T04:44:20.639Z,67.93
2022-10-11T04:49:23.321Z,62.86
2022-10-11T04:54:25.805Z,59.00
2022-10-11T04:59:28.193Z,58.71
2022-10-11T05:04:30.596Z,65.31
2022-10-11T05:09:33.054Z,61.55
2022-10-11T05:14:35.592Z,58.45
2022-10-11T05:19:38.111Z,57.64
2022-10-11T05:24:40.554Z,62.78
2022-10-11T05:29:42.965Z,67.15
2022-10-11T05:34:45.375Z,60.89
2022-10-11T05:39:47.789Z,60.34
2022-10-11T05:44:50.174Z,64.93
2022-10-11T05:49:52.651Z,61.19
2022-10-11T05:54:55.034Z,57.95
2022-10-11T05:59:57.724Z,61.72
2022-10-11T06:05:00.117Z,66.16
2022-10-11T06:10:03.366Z,61.15
2022-10-11T06:15:06.399Z,57.55
2022-10-11T06:20:09.092Z,61.31
2022-10-11T06:25:11.520Z,63.65
2022-10-11T06:30:14.616Z,59.17
2022-10-11T06:35:17.088Z,62.09
2022-10-11T06:40:19.469Z,66.43
2022-10-11T06:45:21.904Z,60.78
2022-10-11T06:50:41.002Z,58.63
2022-10-11T06:55:47.182Z,64.11
2022-10-11T07:00:49.634Z,61.37
2022-10-11T07:05:52.035Z,57.27
2022-10-11T07:10:59.573Z,62.76
2022-10-11T07:16:04.453Z,61.50
2022-10-11T07:21:08.719Z,57.61
2022-10-11T07:26:12.104Z,61.08
2022-10-11T07:31:16.289Z,62.23
2022-10-11T07:36:18.761Z,56.77
2022-10-11T07:41:21.371Z,60.23
2022-10-11T07:46:23.779Z,61.59
2022-10-11T07:51:26.400Z,57.96
2022-10-11T07:56:28.853Z,60.74
2022-10-11T08:01:31.538Z,64.43
2022-10-11T08:06:34.607Z,58.11
2022-10-11T08:11:37.799Z,59.59
2022-10-11T08:16:40.910Z,60.95
2022-10-11T08:21:43.549Z,57.00
2022-10-11T08:26:46.514Z,60.18
2022-10-11T08:31:49.097Z,61.00
2022-10-11T08:36:51.536Z,56.68
2022-10-11T08:41:55.517Z,58.55
2022-10-11T08:47:01.771Z,59.97
2022-10-11T08:52:07.596Z,60.06
2022-10-11T08:57:14.007Z,55.94
2022-10-11T09:02:24.224Z,56.90
2022-10-11T09:07:29.567Z,59.48
2022-10-11T09:12:37.155Z,58.31
2022-10-11T09:17:45.945Z,57.70
2022-10-11T09:22:51.572Z,56.85
2022-10-11T09:28:02.735Z,57.41
2022-10-11T09:33:08.062Z,55.88
2022-10-11T09:38:18.261Z,54.01
2022-10-11T09:43:20.733Z,54.66
2022-10-11T09:48:24.755Z,53.49
2022-10-11T09:53:30.093Z,53.83
2022-10-11T09:58:33.582Z,54.25
2022-10-11T10:03:38.762Z,53.05
2022-10-11T10:08:42.989Z,52.42
2022-10-11T10:13:46.054Z,52.95
2022-10-11T10:18:51.426Z,52.15
2022-10-11T10:23:55.600Z,52.50
2022-10-11T10:29:00.533Z,53.27
2022-10-11T10:34:05.019Z,53.25
2022-10-11T10:39:12.777Z,53.22
2022-10-11T10:44:15.737Z,51.82
2022-10-11T10:49:48.798Z,52.46
2022-10-11T10:54:46.331Z,53.08
2022-10-11T10:59:54.837Z,52.94
2022-10-11T11:05:07.505Z,52.72
2022-10-11T11:10:16.542Z,52.98
2022-10-11T11:15:27.177Z,53.93
2022-10-11T11:20:36.903Z,54.30
2022-10-11T11:25:44.834Z,53.62
2022-10-11T11:30:57.467Z,51.79
2022-10-11T11:36:03.250Z,52.06
2022-10-11T11:41:11.427Z,49.91
2022-10-11T11:46:17.368Z,49.90
2022-10-11T11:51:24.611Z,48.92
2022-10-11T11:56:39.213Z,48.87
2022-10-11T12:01:46.849Z,49.13
2022-10-11T12:07:14.646Z,48.50
2022-10-11T12:12:17.436Z,49.09
2022-10-11T12:17:21.941Z,48.86
2022-10-11T12:22:26.464Z,48.37
2022-10-11T12:27:31.779Z,49.54
2022-10-11T12:32:34.334Z,50.02
2022-10-11T12:37:36.729Z,50.57
2022-10-11T12:42:39.110Z,50.16
2022-10-11T12:47:44.414Z,49.92
2022-10-11T12:52:49.729Z,50.24
2022-10-11T12:57:55.167Z,51.08
2022-10-11T13:02:59.075Z,50.94
2022-10-11T13:08:03.973Z,51.24
2022-10-11T13:13:09.951Z,51.94
2022-10-11T13:18:14.308Z,53.13
2022-10-11T13:23:19.621Z,55.49
2022-10-11T13:28:22.951Z,57.53
2022-10-11T13:33:31.997Z,58.07
2022-10-11T13:38:35.736Z,59.04
2022-10-11T13:43:38.723Z,58.75
2022-10-11T13:48:41.282Z,58.18
2022-10-11T13:53:46.772Z,56.86
2022-10-11T13:58:49.262Z,55.89
2022-10-11T14:03:52.634Z,55.82
2022-10-11T14:08:55.910Z,55.76
2022-10-11T14:13:58.617Z,53.54
2022-10-11T14:19:01.225Z,53.32
2022-10-11T14:24:05.362Z,54.72
2022-10-11T14:29:28.245Z,53.33
2022-10-11T14:34:31.029Z,50.79
2022-10-11T14:39:33.498Z,49.78
2022-10-11T14:44:36.040Z,50.20
2022-10-11T14:49:38.474Z,52.12
2022-10-11T14:54:41.019Z,53.53
2022-10-11T14:59:43.461Z,53.13
2022-10-11T15:04:45.856Z,53.56
2022-10-11T15:09:48.243Z,53.73
2022-10-11T15:14:50.652Z,54.85
2022-10-11T15:19:53.081Z,55.71
2022-10-11T15:24:55.470Z,55.65
2022-10-11T15:29:57.857Z,56.30
2022-10-11T15:35:00.627Z,56.64
2022-10-11T15:40:03.871Z,57.26
2022-10-11T15:45:06.518Z,57.80
2022-10-11T15:50:13.645Z,58.43
2022-10-11T15:55:16.617Z,58.64
2022-10-11T16:00:22.255Z,59.10
2022-10-11T16:05:26.573Z,59.84
2022-10-11T16:10:28.999Z,60.17
2022-10-11T16:15:31.714Z,60.37
2022-10-11T16:20:34.644Z,59.77
2022-10-11T16:25:37.511Z,60.99
2022-10-11T16:30:42.958Z,60.54
2022-10-11T16:35:45.377Z,61.12
2022-10-11T16:40:47.771Z,60.92
2022-10-11T16:45:56.418Z,68.31
2022-10-11T16:51:05.014Z,60.17
2022-10-11T16:56:08.796Z,54.07
2022-10-11T17:01:11.957Z,56.21
2022-10-11T17:06:14.364Z,57.80
2022-10-11T17:11:17.798Z,59.38
2022-10-11T17:16:20.410Z,59.47
2022-10-11T17:21:23.548Z,60.13
2022-10-11T17:26:26.858Z,61.19
2022-10-11T17:31:29.648Z,61.99
2022-10-11T17:36:34.575Z,61.63
2022-10-11T17:41:37.077Z,62.97
2022-10-11T17:46:39.990Z,74.91
2022-10-11T17:51:42.748Z,67.34
2022-10-11T17:56:45.145Z,61.29
2022-10-11T18:01:48.289Z,56.76
2022-10-11T18:06:50.837Z,58.72
2022-10-11T18:11:53.230Z,61.45
2022-10-11T18:16:55.659Z,68.48
2022-10-11T18:21:58.915Z,63.32
2022-10-11T18:27:03.441Z,58.10
2022-10-11T18:32:05.815Z,57.94
2022-10-11T18:37:08.353Z,61.52
2022-10-11T18:42:10.751Z,67.71
2022-10-11T18:47:13.277Z,62.07
2022-10-11T18:52:15.688Z,57.32
2022-10-11T18:57:18.102Z,59.40
2022-10-11T19:02:20.486Z,64.20
2022-10-11T19:07:23.325Z,65.02
2022-10-11T19:12:25.703Z,59.00
2022-10-11T19:17:28.090Z,57.31
2022-10-11T19:22:31.044Z,59.92
2022-10-11T19:27:33.556Z,67.62
2022-10-11T19:32:36.311Z,62.98
2022-10-11T19:37:38.720Z,57.78
2022-10-11T19:42:41.123Z,59.75
2022-10-11T19:47:43.563Z,66.41
2022-10-11T19:52:45.940Z,60.31
2022-10-11T19:57:48.330Z,56.69
2022-10-11T20:02:50.692Z,59.99
2022-10-11T20:07:53.123Z,61.33
2022-10-11T20:12:55.546Z,69.37
2022-10-11T20:17:57.987Z,62.94
2022-10-11T20:23:00.924Z,57.09
2022-10-11T20:28:03.375Z,58.84
2022-10-11T20:33:05.787Z,63.61
2022-10-11T20:38:08.337Z,66.56
2022-10-11T20:43:10.708Z,60.75
2022-10-11T20:48:13.143Z,56.78
2022-10-11T20:53:16.435Z,60.21
2022-10-11T20:58:19.297Z,64.73
2022-10-11T21:03:21.690Z,67.11
2022-10-11T21:08:24.130Z,60.88
2022-10-11T21:13:27.004Z,56.91
2022-10-11T21:18:29.381Z,60.01
2022-10-11T21:23:32.783Z,67.32
2022-10-11T21:28:35.623Z,64.03
2022-10-11T21:33:38.958Z,58.25
2022-10-11T21:38:41.604Z,57.93
2022-10-11T21:43:44.267Z,60.54
2022-10-11T21:48:47.290Z,68.02
2022-10-11T21:53:49.770Z,62.20
2022-10-11T21:58:52.197Z,56.72
2022-10-11T22:03:54.643Z,59.20
2022-10-11T22:08:57.231Z,63.72
2022-10-11T22:14:00.125Z,66.10
2022-10-11T22:19:02.820Z,59.22
2022-10-11T22:24:05.413Z,56.96
2022-10-11T22:29:07.922Z,59.78
2022-10-11T22:34:10.289Z,66.38
2022-10-11T22:39:12.883Z,65.22
2022-10-11T22:44:15.387Z,58.91
2022-10-11T22:49:17.919Z,56.49
2022-10-11T22:54:20.328Z,60.03
2022-10-11T22:59:22.738Z,62.93
2022-10-11T23:04:25.135Z,68.18
2022-10-11T23:09:28.816Z,61.47
2022-10-11T23:14:31.196Z,56.08
2022-10-11T23:19:33.578Z,58.50
2022-10-11T23:24:36.015Z,61.27
2022-10-11T23:29:40.927Z,62.69
2022-10-11T23:34:43.410Z,69.07
2022-10-11T23:39:45.822Z,61.65
2022-10-11T23:44:48.256Z,56.70
2022-10-11T23:49:51.676Z,59.60
2022-10-11T23:54:54.021Z,65.68
2022-10-11T23:59:56.397Z,62.21
